sensor_id;sensor_type;location;lat;lon;timestamp;pressure;altitude;pressure_sealevel;temperature;humidity
9774;BME280;4926;42.670;23.316;2024-02-15T00:01:25;94912.69;;;3.22;58.51
9774;BME280;4926;42.670;23.316;2024-02-15T00:03:51;94909.84;;;3.20;58.65
9774;BME280;4926;42.670;23.316;2024-02-15T00:06:16;94920.16;;;3.19;58.25
9774;BME280;4926;42.670;23.316;2024-02-15T00:08:42;94920.16;;;3.19;57.38
9774;BME280;4926;42.670;23.316;2024-02-15T00:11:10;94920.75;;;3.18;57.81
9774;BME280;4926;42.670;23.316;2024-02-15T00:13:39;94917.38;;;3.19;58.84
9774;BME280;4926;42.670;23.316;2024-02-15T00:16:04;94920.94;;;3.22;58.16
9774;BME280;4926;42.670;23.316;2024-02-15T00:18:31;94914.91;;;3.26;58.30
9774;BME280;4926;42.670;23.316;2024-02-15T00:20:57;94917.56;;;3.24;57.89
9774;BME280;4926;42.670;23.316;2024-02-15T00:23:22;94922.28;;;3.21;58.45
9774;BME280;4926;42.670;23.316;2024-02-15T00:25:48;94923.88;;;3.26;58.08
9774;BME280;4926;42.670;23.316;2024-02-15T00:28:15;94926.47;;;3.22;58.23
9774;BME280;4926;42.670;23.316;2024-02-15T00:30:40;94925.09;;;3.23;57.09
9774;BME280;4926;42.670;23.316;2024-02-15T00:33:06;94926.53;;;3.24;57.14
9774;BME280;4926;42.670;23.316;2024-02-15T00:35:33;94924.50;;;3.25;57.27
9774;BME280;4926;42.670;23.316;2024-02-15T00:37:58;94939.44;;;3.19;57.24
9774;BME280;4926;42.670;23.316;2024-02-15T00:40:23;94939.44;;;3.19;58.34
9774;BME280;4926;42.670;23.316;2024-02-15T00:42:49;94933.22;;;3.19;58.12
9774;BME280;4926;42.670;23.316;2024-02-15T00:45:14;94927.88;;;3.23;58.72
9774;BME280;4926;42.670;23.316;2024-02-15T00:47:40;94943.00;;;3.22;58.46
9774;BME280;4926;42.670;23.316;2024-02-15T00:50:09;94935.88;;;3.17;57.50
9774;BME280;4926;42.670;23.316;2024-02-15T00:52:43;94933.38;;;3.23;58.59
9774;BME280;4926;42.670;23.316;2024-02-15T00:55:08;94925.38;;;3.13;58.05
9774;BME280;4926;42.670;23.316;2024-02-15T00:57:34;94935.34;;;3.20;58.62
9774;BME280;4926;42.670;23.316;2024-02-15T01:00:00;94932.84;;;3.27;57.91
9774;BME280;4926;42.670;23.316;2024-02-15T01:02:27;94936.94;;;3.26;58.14
9774;BME280;4926;42.670;23.316;2024-02-15T01:04:53;94939.59;;;3.24;57.40
9774;BME280;4926;42.670;23.316;2024-02-15T01:07:20;94932.41;;;3.16;58.17
9774;BME280;4926;42.670;23.316;2024-02-15T01:09:46;94924.66;;;3.13;57.76
9774;BME280;4926;42.670;23.316;2024-02-15T01:12:11;94929.28;;;3.24;57.78
9774;BME280;4926;42.670;23.316;2024-02-15T01:14:39;94935.69;;;3.13;57.69
9774;BME280;4926;42.670;23.316;2024-02-15T01:17:05;94930.78;;;3.11;58.23
9774;BME280;4926;42.670;23.316;2024-02-15T01:19:33;94931.16;;;3.19;58.25
9774;BME280;4926;42.670;23.316;2024-02-15T01:22:01;94920.56;;;3.14;58.36
9774;BME280;4926;42.670;23.316;2024-02-15T01:24:28;94925.75;;;3.22;57.22
9774;BME280;4926;42.670;23.316;2024-02-15T01:26:53;94921.38;;;3.16;57.07
9774;BME280;4926;42.670;23.316;2024-02-15T01:29:22;94934.44;;;3.16;57.37
9774;BME280;4926;42.670;23.316;2024-02-15T01:31:47;94923.94;;;3.12;57.40
9774;BME280;4926;42.670;23.316;2024-02-15T01:34:12;94932.50;;;3.18;58.24
9774;BME280;4926;42.670;23.316;2024-02-15T01:36:38;94928.41;;;3.19;57.06
9774;BME280;4926;42.670;23.316;2024-02-15T01:39:06;94929.44;;;3.12;57.42
9774;BME280;4926;42.670;23.316;2024-02-15T01:41:34;94927.41;;;3.13;57.84
9774;BME280;4926;42.670;23.316;2024-02-15T01:43:59;94928.13;;;3.13;58.39
9774;BME280;4926;42.670;23.316;2024-02-15T01:46:32;94931.41;;;3.10;58.43
9774;BME280;4926;42.670;23.316;2024-02-15T01:48:57;94923.78;;;3.08;57.95
9774;BME280;4926;42.670;23.316;2024-02-15T01:51:23;94917.88;;;3.00;58.19
9774;BME280;4926;42.670;23.316;2024-02-15T01:53:53;94920.94;;;3.06;58.53
9774;BME280;4926;42.670;23.316;2024-02-15T01:56:19;94932.56;;;3.05;58.10
9774;BME280;4926;42.670;23.316;2024-02-15T01:58:45;94923.38;;;3.00;58.46
9774;BME280;4926;42.670;23.316;2024-02-15T02:01:13;94922.88;;;3.04;57.45
9774;BME280;4926;42.670;23.316;2024-02-15T02:03:40;94925.19;;;3.09;57.59
9774;BME280;4926;42.670;23.316;2024-02-15T02:06:05;94923.84;;;3.10;58.26
9774;BME280;4926;42.670;23.316;2024-02-15T02:08:31;94930.88;;;3.13;58.34
9774;BME280;4926;42.670;23.316;2024-02-15T02:11:11;94930.06;;;3.11;58.41
9774;BME280;4926;42.670;23.316;2024-02-15T02:13:37;94930.53;;;3.05;58.80
9774;BME280;4926;42.670;23.316;2024-02-15T02:16:03;94930.41;;;3.03;57.73
9774;BME280;4926;42.670;23.316;2024-02-15T02:18:37;94934.94;;;2.97;57.90
9774;BME280;4926;42.670;23.316;2024-02-15T02:21:04;94932.97;;;2.99;59.08
9774;BME280;4926;42.670;23.316;2024-02-15T02:23:31;94939.19;;;3.00;57.58
9774;BME280;4926;42.670;23.316;2024-02-15T02:25:57;94934.84;;;2.95;57.67
9774;BME280;4926;42.670;23.316;2024-02-15T02:28:22;94940.00;;;3.02;58.89
9774;BME280;4926;42.670;23.316;2024-02-15T02:30:48;94937.78;;;2.99;57.98
9774;BME280;4926;42.670;23.316;2024-02-15T02:33:13;94933.69;;;3.00;58.46
9774;BME280;4926;42.670;23.316;2024-02-15T02:35:45;94940.72;;;3.03;58.31
9774;BME280;4926;42.670;23.316;2024-02-15T02:38:11;94945.63;;;3.04;58.10
9774;BME280;4926;42.670;23.316;2024-02-15T02:40:37;94937.44;;;3.06;57.36
9774;BME280;4926;42.670;23.316;2024-02-15T02:43:02;94941.69;;;3.09;57.62
9774;BME280;4926;42.670;23.316;2024-02-15T02:45:28;94940.72;;;3.03;57.44
9774;BME280;4926;42.670;23.316;2024-02-15T02:47:54;94943.28;;;2.99;57.98
9774;BME280;4926;42.670;23.316;2024-02-15T02:50:23;94942.41;;;2.94;58.07
9774;BME280;4926;42.670;23.316;2024-02-15T02:52:49;94952.69;;;2.94;58.88
9774;BME280;4926;42.670;23.316;2024-02-15T02:55:15;94942.41;;;2.94;57.85
9774;BME280;4926;42.670;23.316;2024-02-15T02:57:40;94939.56;;;2.92;58.99
9774;BME280;4926;42.670;23.316;2024-02-15T03:00:12;94944.97;;;2.90;58.67
9774;BME280;4926;42.670;23.316;2024-02-15T03:02:41;94945.38;;;2.84;58.13
9774;BME280;4926;42.670;23.316;2024-02-15T03:05:08;94940.22;;;2.77;58.79
9774;BME280;4926;42.670;23.316;2024-02-15T03:07:37;94934.09;;;2.78;58.21
9774;BME280;4926;42.670;23.316;2024-02-15T03:10:03;94945.28;;;2.82;58.26
9774;BME280;4926;42.670;23.316;2024-02-15T03:12:30;94952.03;;;2.79;58.58
9774;BME280;4926;42.670;23.316;2024-02-15T03:14:58;94951.31;;;2.79;58.46
9774;BME280;4926;42.670;23.316;2024-02-15T03:17:24;94954.19;;;2.67;58.97
9774;BME280;4926;42.670;23.316;2024-02-15T03:19:49;94961.72;;;2.67;60.17
9774;BME280;4926;42.670;23.316;2024-02-15T03:22:15;94954.72;;;2.64;59.71
9774;BME280;4926;42.670;23.316;2024-02-15T03:24:41;94960.94;;;2.64;59.82
9774;BME280;4926;42.670;23.316;2024-02-15T03:27:08;94965.91;;;2.68;60.58
9774;BME280;4926;42.670;23.316;2024-02-15T03:29:35;94968.06;;;2.69;59.49
9774;BME280;4926;42.670;23.316;2024-02-15T03:32:02;94971.53;;;2.70;59.46
9774;BME280;4926;42.670;23.316;2024-02-15T03:34:32;94964.78;;;2.73;60.36
9774;BME280;4926;42.670;23.316;2024-02-15T03:36:58;94964.00;;;2.57;60.55
9774;BME280;4926;42.670;23.316;2024-02-15T03:39:24;94970.44;;;2.61;59.96
9774;BME280;4926;42.670;23.316;2024-02-15T03:41:50;94964.09;;;2.59;60.82
9774;BME280;4926;42.670;23.316;2024-02-15T03:44:18;94970.19;;;2.71;60.39
9774;BME280;4926;42.670;23.316;2024-02-15T03:46:44;94965.06;;;2.49;60.74
9774;BME280;4926;42.670;23.316;2024-02-15T03:49:18;94978.47;;;2.57;60.04
9774;BME280;4926;42.670;23.316;2024-02-15T03:51:44;94954.31;;;2.56;59.97
9774;BME280;4926;42.670;23.316;2024-02-15T03:54:13;94964.75;;;2.43;60.85
9774;BME280;4926;42.670;23.316;2024-02-15T03:56:51;94974.91;;;2.55;59.56
9774;BME280;4926;42.670;23.316;2024-02-15T03:59:21;94965.34;;;2.56;60.18
9774;BME280;4926;42.670;23.316;2024-02-15T04:01:55;94970.84;;;2.42;59.62
9774;BME280;4926;42.670;23.316;2024-02-15T04:04:21;94963.66;;;2.35;60.14
9774;BME280;4926;42.670;23.316;2024-02-15T04:06:50;94964.34;;;2.35;60.98
9774;BME280;4926;42.670;23.316;2024-02-15T04:09:32;94968.94;;;2.31;60.25
9774;BME280;4926;42.670;23.316;2024-02-15T04:11:58;94965.47;;;2.30;60.93
9774;BME280;4926;42.670;23.316;2024-02-15T04:14:23;94956.28;;;2.26;61.22
9774;BME280;4926;42.670;23.316;2024-02-15T04:16:49;94962.00;;;2.30;61.61
9774;BME280;4926;42.670;23.316;2024-02-15T04:19:17;94965.88;;;2.25;61.31
9774;BME280;4926;42.670;23.316;2024-02-15T04:21:45;94971.69;;;2.31;60.85
9774;BME280;4926;42.670;23.316;2024-02-15T04:24:12;94970.56;;;2.36;60.66
9774;BME280;4926;42.670;23.316;2024-02-15T04:26:38;94969.16;;;2.35;61.13
9774;BME280;4926;42.670;23.316;2024-02-15T04:29:04;94963.53;;;2.33;59.98
9774;BME280;4926;42.670;23.316;2024-02-15T04:31:32;94977.41;;;2.35;60.36
9774;BME280;4926;42.670;23.316;2024-02-15T04:34:02;94976.06;;;2.36;59.88
9774;BME280;4926;42.670;23.316;2024-02-15T04:36:28;94970.38;;;2.32;60.63
9774;BME280;4926;42.670;23.316;2024-02-15T04:38:59;94975.88;;;2.32;60.79
9774;BME280;4926;42.670;23.316;2024-02-15T04:41:26;94979.53;;;2.36;60.21
9774;BME280;4926;42.670;23.316;2024-02-15T04:43:52;94977.69;;;2.27;60.90
9774;BME280;4926;42.670;23.316;2024-02-15T04:46:18;94979.03;;;2.26;60.53
9774;BME280;4926;42.670;23.316;2024-02-15T04:48:48;94981.16;;;2.28;60.53
9774;BME280;4926;42.670;23.316;2024-02-15T04:51:19;94983.31;;;2.29;60.31
9774;BME280;4926;42.670;23.316;2024-02-15T04:53:45;94989.41;;;2.28;60.90
9774;BME280;4926;42.670;23.316;2024-02-15T04:56:14;94991.56;;;2.16;60.67
9774;BME280;4926;42.670;23.316;2024-02-15T04:58:42;94999.53;;;2.23;61.17
9774;BME280;4926;42.670;23.316;2024-02-15T05:01:14;94999.81;;;2.16;61.50
9774;BME280;4926;42.670;23.316;2024-02-15T05:03:41;94999.91;;;2.18;60.93
9774;BME280;4926;42.670;23.316;2024-02-15T05:06:07;95005.09;;;2.25;60.60
9774;BME280;4926;42.670;23.316;2024-02-15T05:08:33;95014.00;;;2.24;60.46
9774;BME280;4926;42.670;23.316;2024-02-15T05:11:02;95014.38;;;2.18;60.71
9774;BME280;4926;42.670;23.316;2024-02-15T05:13:29;95015.59;;;2.15;61.60
9774;BME280;4926;42.670;23.316;2024-02-15T05:15:55;95015.72;;;2.17;62.45
9774;BME280;4926;42.670;23.316;2024-02-15T05:18:21;95019.28;;;2.20;61.77
9774;BME280;4926;42.670;23.316;2024-02-15T05:20:46;95027.31;;;2.29;62.29
9774;BME280;4926;42.670;23.316;2024-02-15T05:23:15;95017.84;;;2.32;61.13
9774;BME280;4926;42.670;23.316;2024-02-15T05:25:43;95016.31;;;2.29;60.15
9774;BME280;4926;42.670;23.316;2024-02-15T05:28:09;95010.59;;;2.25;61.23
9774;BME280;4926;42.670;23.316;2024-02-15T05:30:35;95016.63;;;2.22;60.44
9774;BME280;4926;42.670;23.316;2024-02-15T05:33:10;95032.94;;;2.18;60.72
9774;BME280;4926;42.670;23.316;2024-02-15T05:35:36;95025.59;;;2.08;61.22
9774;BME280;4926;42.670;23.316;2024-02-15T05:38:04;95032.72;;;2.13;61.20
9774;BME280;4926;42.670;23.316;2024-02-15T05:40:32;95024.78;;;2.20;61.42
9774;BME280;4926;42.670;23.316;2024-02-15T05:42:57;95033.44;;;2.14;61.46
9774;BME280;4926;42.670;23.316;2024-02-15T05:47:51;95033.75;;;2.20;60.81
9774;BME280;4926;42.670;23.316;2024-02-15T05:50:17;95032.00;;;2.27;60.56
9774;BME280;4926;42.670;23.316;2024-02-15T05:52:46;95041.06;;;2.29;60.57
9774;BME280;4926;42.670;23.316;2024-02-15T05:55:17;95050.47;;;2.24;61.34
9774;BME280;4926;42.670;23.316;2024-02-15T05:57:44;95049.13;;;2.25;60.61
9774;BME280;4926;42.670;23.316;2024-02-15T06:00:10;95043.94;;;2.18;61.66
9774;BME280;4926;42.670;23.316;2024-02-15T06:02:36;95042.50;;;2.30;60.42
9774;BME280;4926;42.670;23.316;2024-02-15T06:05:01;95045.47;;;2.34;60.53
9774;BME280;4926;42.670;23.316;2024-02-15T06:07:32;95050.66;;;2.28;60.47
9774;BME280;4926;42.670;23.316;2024-02-15T06:09:59;95056.75;;;2.27;60.50
9774;BME280;4926;42.670;23.316;2024-02-15T06:12:28;95046.28;;;2.23;61.41
9774;BME280;4926;42.670;23.316;2024-02-15T06:14:55;95051.69;;;2.21;61.42
9774;BME280;4926;42.670;23.316;2024-02-15T06:17:23;95049.03;;;2.23;60.42
9774;BME280;4926;42.670;23.316;2024-02-15T06:19:49;95058.91;;;2.28;60.53
9774;BME280;4926;42.670;23.316;2024-02-15T06:22:15;95067.38;;;2.32;60.38
9774;BME280;4926;42.670;23.316;2024-02-15T06:24:41;95067.16;;;2.28;60.32
9774;BME280;4926;42.670;23.316;2024-02-15T06:27:07;95080.81;;;2.26;61.01
9774;BME280;4926;42.670;23.316;2024-02-15T06:29:32;95078.50;;;2.34;59.99
9774;BME280;4926;42.670;23.316;2024-02-15T06:32:16;95085.09;;;2.29;61.32
9774;BME280;4926;42.670;23.316;2024-02-15T06:35:20;95077.88;;;2.36;59.85
9774;BME280;4926;42.670;23.316;2024-02-15T06:38:11;95084.22;;;2.38;60.50
9774;BME280;4926;42.670;23.316;2024-02-15T06:40:55;95072.56;;;2.40;60.17
9774;BME280;4926;42.670;23.316;2024-02-15T06:43:23;95084.59;;;2.33;60.09
9774;BME280;4926;42.670;23.316;2024-02-15T06:45:49;95087.84;;;2.29;60.63
9774;BME280;4926;42.670;23.316;2024-02-15T06:48:16;95088.28;;;2.37;61.52
9774;BME280;4926;42.670;23.316;2024-02-15T06:50:41;95088.91;;;2.49;60.14
9774;BME280;4926;42.670;23.316;2024-02-15T06:53:07;95093.69;;;2.49;60.70
9774;BME280;4926;42.670;23.316;2024-02-15T06:55:33;95098.59;;;2.51;60.60
9774;BME280;4926;42.670;23.316;2024-02-15T06:57:59;95098.69;;;2.53;59.73
9774;BME280;4926;42.670;23.316;2024-02-15T07:00:25;95095.22;;;2.38;60.36
9774;BME280;4926;42.670;23.316;2024-02-15T07:02:50;95096.00;;;2.41;60.13
9774;BME280;4926;42.670;23.316;2024-02-15T07:05:16;95086.13;;;2.36;61.25
9774;BME280;4926;42.670;23.316;2024-02-15T07:07:42;95075.53;;;2.30;61.45
9774;BME280;4926;42.670;23.316;2024-02-15T07:10:09;95087.56;;;2.64;60.27
9774;BME280;4926;42.670;23.316;2024-02-15T07:12:36;95072.63;;;2.97;58.78
9774;BME280;4926;42.670;23.316;2024-02-15T07:15:04;95080.22;;;3.26;58.12
9774;BME280;4926;42.670;23.316;2024-02-15T07:17:32;95081.31;;;3.48;57.47
9774;BME280;4926;42.670;23.316;2024-02-15T07:19:57;95080.34;;;3.57;55.58
9774;BME280;4926;42.670;23.316;2024-02-15T07:22:23;95082.53;;;3.74;55.83
9774;BME280;4926;42.670;23.316;2024-02-15T07:24:48;95077.28;;;3.96;55.72
9774;BME280;4926;42.670;23.316;2024-02-15T07:27:14;95076.16;;;4.17;53.72
9774;BME280;4926;42.670;23.316;2024-02-15T07:29:40;95090.22;;;4.39;54.36
9774;BME280;4926;42.670;23.316;2024-02-15T07:32:06;95081.69;;;4.48;53.61
9774;BME280;4926;42.670;23.316;2024-02-15T07:34:32;95086.13;;;4.24;53.86
9774;BME280;4926;42.670;23.316;2024-02-15T07:37:02;95077.41;;;4.30;53.24
9774;BME280;4926;42.670;23.316;2024-02-15T07:39:27;95070.28;;;4.40;53.37
9774;BME280;4926;42.670;23.316;2024-02-15T07:41:56;95073.81;;;4.58;52.71
9774;BME280;4926;42.670;23.316;2024-02-15T07:44:25;95072.03;;;4.49;52.40
9774;BME280;4926;42.670;23.316;2024-02-15T07:46:52;95074.03;;;4.47;53.31
9774;BME280;4926;42.670;23.316;2024-02-15T07:49:18;95061.16;;;4.69;52.71
9774;BME280;4926;42.670;23.316;2024-02-15T07:51:44;95070.94;;;5.06;50.87
9774;BME280;4926;42.670;23.316;2024-02-15T07:54:11;95072.63;;;5.13;50.83
9774;BME280;4926;42.670;23.316;2024-02-15T07:56:37;95076.44;;;5.21;50.65
9774;BME280;4926;42.670;23.316;2024-02-15T07:59:03;95071.94;;;5.48;50.49
9774;BME280;4926;42.670;23.316;2024-02-15T08:01:32;95083.56;;;5.80;48.43
9774;BME280;4926;42.670;23.316;2024-02-15T08:04:02;95078.66;;;6.14;49.28
9774;BME280;4926;42.670;23.316;2024-02-15T08:06:33;95072.53;;;6.55;46.97
9774;BME280;4926;42.670;23.316;2024-02-15T08:09:02;95072.50;;;6.74;46.91
9774;BME280;4926;42.670;23.316;2024-02-15T08:11:30;95074.41;;;6.90;47.25
9774;BME280;4926;42.670;23.316;2024-02-15T08:13:56;95060.59;;;7.11;46.00
9774;BME280;4926;42.670;23.316;2024-02-15T08:16:25;95059.41;;;7.38;45.20
9774;BME280;4926;42.670;23.316;2024-02-15T08:18:54;95056.16;;;7.46;45.34
9774;BME280;4926;42.670;23.316;2024-02-15T08:23:53;95062.03;;;7.34;45.09
9774;BME280;4926;42.670;23.316;2024-02-15T08:26:18;95061.50;;;7.62;45.48
9774;BME280;4926;42.670;23.316;2024-02-15T08:28:44;95055.31;;;7.85;43.98
9774;BME280;4926;42.670;23.316;2024-02-15T08:31:09;95058.59;;;8.03;43.57
9774;BME280;4926;42.670;23.316;2024-02-15T08:33:36;95057.09;;;8.46;42.95
9774;BME280;4926;42.670;23.316;2024-02-15T08:36:04;95064.63;;;8.41;42.74
9774;BME280;4926;42.670;23.316;2024-02-15T08:38:30;95063.91;;;8.41;42.08
9774;BME280;4926;42.670;23.316;2024-02-15T08:40:56;95061.28;;;8.47;42.40
9774;BME280;4926;42.670;23.316;2024-02-15T08:43:21;95059.88;;;8.46;42.13
9774;BME280;4926;42.670;23.316;2024-02-15T08:45:47;95059.22;;;8.47;41.70
9774;BME280;4926;42.670;23.316;2024-02-15T08:48:13;95055.13;;;8.76;41.64
9774;BME280;4926;42.670;23.316;2024-02-15T08:50:39;95061.66;;;9.13;41.21
9774;BME280;4926;42.670;23.316;2024-02-15T08:53:06;95059.13;;;9.23;40.95
9774;BME280;4926;42.670;23.316;2024-02-15T08:55:32;95056.78;;;9.41;40.12
9774;BME280;4926;42.670;23.316;2024-02-15T08:58:01;95055.69;;;9.52;39.87
9774;BME280;4926;42.670;23.316;2024-02-15T09:00:27;95057.91;;;9.88;39.50
9774;BME280;4926;42.670;23.316;2024-02-15T09:02:53;95058.00;;;9.92;39.01
9774;BME280;4926;42.670;23.316;2024-02-15T09:05:19;95049.13;;;9.70;39.66
9774;BME280;4926;42.670;23.316;2024-02-15T09:07:48;95058.16;;;9.68;38.30
9774;BME280;4926;42.670;23.316;2024-02-15T09:10:17;95051.16;;;9.67;39.26
9774;BME280;4926;42.670;23.316;2024-02-15T09:12:45;95050.59;;;9.73;38.72
9774;BME280;4926;42.670;23.316;2024-02-15T09:15:14;95041.44;;;9.38;39.61
9774;BME280;4926;42.670;23.316;2024-02-15T09:17:41;95042.78;;;9.37;39.54
9774;BME280;4926;42.670;23.316;2024-02-15T09:20:09;95037.88;;;9.36;40.45
9774;BME280;4926;42.670;23.316;2024-02-15T09:22:43;95044.78;;;9.63;39.07
9774;BME280;4926;42.670;23.316;2024-02-15T09:25:11;95045.06;;;9.75;39.61
9774;BME280;4926;42.670;23.316;2024-02-15T09:27:40;95046.09;;;9.59;39.01
9774;BME280;4926;42.670;23.316;2024-02-15T09:30:06;95035.81;;;9.36;40.31
9774;BME280;4926;42.670;23.316;2024-02-15T09:32:44;95043.69;;;9.76;40.20
9774;BME280;4926;42.670;23.316;2024-02-15T09:35:11;95039.09;;;9.88;39.05
9774;BME280;4926;42.670;23.316;2024-02-15T09:37:45;95040.66;;;10.27;38.81
9774;BME280;4926;42.670;23.316;2024-02-15T09:40:12;95034.84;;;10.85;35.77
9774;BME280;4926;42.670;23.316;2024-02-15T09:42:38;95030.13;;;10.94;35.68
9774;BME280;4926;42.670;23.316;2024-02-15T09:45:22;95023.47;;;10.37;37.64
9774;BME280;4926;42.670;23.316;2024-02-15T09:47:50;95023.91;;;10.25;37.89
9774;BME280;4926;42.670;23.316;2024-02-15T09:50:17;95030.88;;;9.63;39.49
9774;BME280;4926;42.670;23.316;2024-02-15T09:52:53;95024.72;;;9.38;39.96
9774;BME280;4926;42.670;23.316;2024-02-15T09:55:22;95026.53;;;9.00;39.70
9774;BME280;4926;42.670;23.316;2024-02-15T09:57:49;95029.75;;;8.62;41.03
9774;BME280;4926;42.670;23.316;2024-02-15T10:00:17;95026.75;;;8.54;41.31
9774;BME280;4926;42.670;23.316;2024-02-15T10:02:44;95023.19;;;8.77;41.86
9774;BME280;4926;42.670;23.316;2024-02-15T10:05:10;95008.41;;;8.97;41.62
9774;BME280;4926;42.670;23.316;2024-02-15T10:07:41;95010.03;;;9.06;41.10
9774;BME280;4926;42.670;23.316;2024-02-15T10:12:46;94995.44;;;8.28;41.84
9774;BME280;4926;42.670;23.316;2024-02-15T10:15:39;95000.88;;;8.24;43.90
9774;BME280;4926;42.670;23.316;2024-02-15T10:18:10;94995.75;;;8.38;41.91
9774;BME280;4926;42.670;23.316;2024-02-15T10:20:40;94997.63;;;8.83;40.88
9774;BME280;4926;42.670;23.316;2024-02-15T10:23:13;94989.72;;;9.01;40.43
9774;BME280;4926;42.670;23.316;2024-02-15T10:25:42;94986.81;;;9.23;40.21
9774;BME280;4926;42.670;23.316;2024-02-15T10:28:12;94976.78;;;9.42;39.93
9774;BME280;4926;42.670;23.316;2024-02-15T10:30:42;94988.53;;;9.68;39.20
9774;BME280;4926;42.670;23.316;2024-02-15T10:33:09;94980.91;;;9.71;39.15
9774;BME280;4926;42.670;23.316;2024-02-15T10:35:34;94987.09;;;9.99;38.69
9774;BME280;4926;42.670;23.316;2024-02-15T10:38:08;94978.38;;;9.81;39.10
9774;BME280;4926;42.670;23.316;2024-02-15T10:40:35;94978.06;;;10.33;38.64
9774;BME280;4926;42.670;23.316;2024-02-15T10:43:04;94980.38;;;10.82;36.92
9774;BME280;4926;42.670;23.316;2024-02-15T10:45:39;94960.69;;;10.72;36.62
9774;BME280;4926;42.670;23.316;2024-02-15T10:48:07;94975.06;;;10.58;37.06
9774;BME280;4926;42.670;23.316;2024-02-15T10:50:33;94968.81;;;9.90;39.21
9774;BME280;4926;42.670;23.316;2024-02-15T10:52:59;94965.47;;;9.95;39.22
9774;BME280;4926;42.670;23.316;2024-02-15T10:56:26;94963.50;;;10.02;39.23
9774;BME280;4926;42.670;23.316;2024-02-15T10:58:33;94963.25;;;9.90;39.02
9774;BME280;4926;42.670;23.316;2024-02-15T11:01:06;94959.25;;;9.35;40.00
9774;BME280;4926;42.670;23.316;2024-02-15T11:03:35;94955.44;;;9.20;40.36
9774;BME280;4926;42.670;23.316;2024-02-15T11:06:02;94947.94;;;8.97;40.47
9774;BME280;4926;42.670;23.316;2024-02-15T11:08:32;94948.94;;;8.54;42.04
9774;BME280;4926;42.670;23.316;2024-02-15T11:11:02;94960.50;;;8.21;44.30
9774;BME280;4926;42.670;23.316;2024-02-15T11:13:30;94951.13;;;8.08;44.37
9774;BME280;4926;42.670;23.316;2024-02-15T11:15:56;94941.38;;;7.81;44.16
9774;BME280;4926;42.670;23.316;2024-02-15T11:18:44;94949.69;;;7.81;44.70
9774;BME280;4926;42.670;23.316;2024-02-15T11:21:11;94941.72;;;7.69;45.00
9774;BME280;4926;42.670;23.316;2024-02-15T11:23:37;94936.69;;;7.64;44.69
9774;BME280;4926;42.670;23.316;2024-02-15T11:26:03;94935.34;;;7.65;45.48
9774;BME280;4926;42.670;23.316;2024-02-15T11:30:55;94928.63;;;7.72;44.72
9774;BME280;4926;42.670;23.316;2024-02-15T11:33:33;94927.06;;;7.67;44.72
9774;BME280;4926;42.670;23.316;2024-02-15T11:36:11;94935.63;;;7.75;44.17
9774;BME280;4926;42.670;23.316;2024-02-15T11:38:37;94934.22;;;7.74;44.04
9774;BME280;4926;42.670;23.316;2024-02-15T11:41:07;94930.25;;;7.81;44.97
9774;BME280;4926;42.670;23.316;2024-02-15T11:43:50;94928.19;;;7.81;44.09
9774;BME280;4926;42.670;23.316;2024-02-15T11:46:23;94929.44;;;7.76;44.62
9774;BME280;4926;42.670;23.316;2024-02-15T11:48:55;94923.94;;;7.78;44.81
9774;BME280;4926;42.670;23.316;2024-02-15T11:51:30;94929.00;;;7.86;44.08
9774;BME280;4926;42.670;23.316;2024-02-15T11:53:59;94932.03;;;7.94;45.15
9774;BME280;4926;42.670;23.316;2024-02-15T11:59:08;94915.41;;;7.96;45.46
9774;BME280;4926;42.670;23.316;2024-02-15T12:01:38;94908.88;;;7.86;44.63
9774;BME280;4926;42.670;23.316;2024-02-15T12:04:22;94920.63;;;7.84;45.47
9774;BME280;4926;42.670;23.316;2024-02-15T12:07:05;94920.44;;;7.78;44.58
9774;BME280;4926;42.670;23.316;2024-02-15T12:09:49;94913.91;;;7.67;45.44
9774;BME280;4926;42.670;23.316;2024-02-15T12:12:33;94904.44;;;7.76;45.68
9774;BME280;4926;42.670;23.316;2024-02-15T12:15:24;94902.72;;;7.89;45.98
9774;BME280;4926;42.670;23.316;2024-02-15T12:18:17;94895.66;;;7.84;45.94
9774;BME280;4926;42.670;23.316;2024-02-15T12:21:02;94898.69;;;7.94;46.24
9774;BME280;4926;42.670;23.316;2024-02-15T12:23:29;94907.09;;;7.96;45.35
9774;BME280;4926;42.670;23.316;2024-02-15T12:25:59;94908.66;;;8.03;45.31
9774;BME280;4926;42.670;23.316;2024-02-15T12:28:25;94898.19;;;8.02;44.46
9774;BME280;4926;42.670;23.316;2024-02-15T12:30:55;94903.22;;;8.07;45.70
9774;BME280;4926;42.670;23.316;2024-02-15T12:33:22;94901.69;;;8.02;45.38
9774;BME280;4926;42.670;23.316;2024-02-15T12:35:49;94892.81;;;8.08;45.18
9774;BME280;4926;42.670;23.316;2024-02-15T12:38:16;94893.41;;;8.04;45.37
9774;BME280;4926;42.670;23.316;2024-02-15T12:40:42;94885.91;;;8.09;45.29
9774;BME280;4926;42.670;23.316;2024-02-15T12:43:09;94897.06;;;8.11;45.89
9774;BME280;4926;42.670;23.316;2024-02-15T12:45:39;94884.53;;;8.10;44.66
9774;BME280;4926;42.670;23.316;2024-02-15T12:48:07;94896.50;;;8.16;45.96
9774;BME280;4926;42.670;23.316;2024-02-15T12:50:33;94887.00;;;8.24;45.50
9774;BME280;4926;42.670;23.316;2024-02-15T12:53:02;94893.31;;;8.26;44.68
9774;BME280;4926;42.670;23.316;2024-02-15T12:55:32;94872.66;;;8.33;45.50
9774;BME280;4926;42.670;23.316;2024-02-15T12:58:03;94887.53;;;8.44;45.75
9774;BME280;4926;42.670;23.316;2024-02-15T13:00:34;94887.63;;;8.48;44.69
9774;BME280;4926;42.670;23.316;2024-02-15T13:03:03;94890.16;;;8.38;44.61
9774;BME280;4926;42.670;23.316;2024-02-15T13:05:30;94880.47;;;8.13;45.12
9774;BME280;4926;42.670;23.316;2024-02-15T13:07:58;94882.78;;;8.23;45.38
9774;BME280;4926;42.670;23.316;2024-02-15T13:10:24;94880.63;;;8.19;45.93
9774;BME280;4926;42.670;23.316;2024-02-15T13:12:51;94882.03;;;8.20;45.72
9774;BME280;4926;42.670;23.316;2024-02-15T13:15:17;94880.78;;;8.25;45.17
9774;BME280;4926;42.670;23.316;2024-02-15T13:17:49;94878.16;;;8.31;46.09
9774;BME280;4926;42.670;23.316;2024-02-15T13:20:19;94874.50;;;8.25;45.98
9774;BME280;4926;42.670;23.316;2024-02-15T13:23:07;94887.44;;;8.40;45.73
9774;BME280;4926;42.670;23.316;2024-02-15T13:25:51;94885.72;;;8.55;45.91
9774;BME280;4926;42.670;23.316;2024-02-15T13:28:21;94879.75;;;8.66;44.55
9774;BME280;4926;42.670;23.316;2024-02-15T13:30:47;94870.22;;;8.75;44.55
9774;BME280;4926;42.670;23.316;2024-02-15T13:33:14;94875.66;;;8.69;45.40
9774;BME280;4926;42.670;23.316;2024-02-15T13:35:41;94877.25;;;8.78;44.40
9774;BME280;4926;42.670;23.316;2024-02-15T13:38:07;94876.72;;;8.84;44.21
9774;BME280;4926;42.670;23.316;2024-02-15T13:40:39;94871.88;;;8.86;43.66
9774;BME280;4926;42.670;23.316;2024-02-15T13:43:05;94883.34;;;9.01;44.19